sensor_id;sensor_type;location;lat;lon;timestamp;pressure;altitude;pressure_sealevel;temperature;humidity
63088;BME280;49173;43.164;27.786;2023-03-03T00:01:29;100900.66;;;5.98;83.80
63088;BME280;49173;43.164;27.786;2023-03-03T00:03:57;100902.59;;;5.93;83.80
63088;BME280;49173;43.164;27.786;2023-03-03T00:06:25;100894.63;;;5.90;83.92
63088;BME280;49173;43.164;27.786;2023-03-03T00:08:51;100903.53;;;5.89;84.43
63088;BME280;49173;43.164;27.786;2023-03-03T00:11:18;100897.34;;;5.88;84.29
63088;BME280;49173;43.164;27.786;2023-03-03T00:13:52;100894.69;;;5.88;84.03
63088;BME280;49173;43.164;27.786;2023-03-03T00:18:50;100889.34;;;5.88;84.23
63088;BME280;49173;43.164;27.786;2023-03-03T00:21:31;100893.72;;;5.92;83.95
63088;BME280;49173;43.164;27.786;2023-03-03T00:24:38;100891.78;;;5.97;84.16
63088;BME280;49173;43.164;27.786;2023-03-03T00:27:26;100886.47;;;5.97;83.74
63088;BME280;49173;43.164;27.786;2023-03-03T00:30:00;100897.06;;;5.99;84.07
63088;BME280;49173;43.164;27.786;2023-03-03T00:32:30;100887.25;;;6.01;83.96
63088;BME280;49173;43.164;27.786;2023-03-03T00:35:30;100889.06;;;5.99;83.93
63088;BME280;49173;43.164;27.786;2023-03-03T00:38:00;100882.88;;;5.98;83.56
63088;BME280;49173;43.164;27.786;2023-03-03T00:40:34;100883.84;;;5.96;83.46
63088;BME280;49173;43.164;27.786;2023-03-03T00:43:01;100873.09;;;5.99;83.56
63088;BME280;49173;43.164;27.786;2023-03-03T00:45:50;100872.19;;;6.00;83.51
63088;BME280;49173;43.164;27.786;2023-03-03T00:48:29;100868.66;;;5.99;83.36
63088;BME280;49173;43.164;27.786;2023-03-03T00:51:00;100858.94;;;5.97;83.24
63088;BME280;49173;43.164;27.786;2023-03-03T00:53:29;100859.75;;;5.99;83.45
63088;BME280;49173;43.164;27.786;2023-03-03T00:55:56;100850.94;;;5.97;83.21
63088;BME280;49173;43.164;27.786;2023-03-03T00:58:23;100854.53;;;5.96;83.24
63088;BME280;49173;43.164;27.786;2023-03-03T01:00:53;100851.00;;;5.95;82.94
63088;BME280;49173;43.164;27.786;2023-03-03T01:03:23;100846.66;;;5.93;83.35
63088;BME280;49173;43.164;27.786;2023-03-03T01:05:50;100846.66;;;5.93;83.13
63088;BME280;49173;43.164;27.786;2023-03-03T01:08:16;100842.19;;;5.93;82.93
63088;BME280;49173;43.164;27.786;2023-03-03T01:10:49;100835.06;;;5.94;83.18
63088;BME280;49173;43.164;27.786;2023-03-03T01:13:16;100827.06;;;5.94;83.18
63088;BME280;49173;43.164;27.786;2023-03-03T01:15:43;100827.06;;;5.94;82.99
63088;BME280;49173;43.164;27.786;2023-03-03T01:21:35;100829.75;;;5.94;82.97
63088;BME280;49173;43.164;27.786;2023-03-03T01:24:01;100830.66;;;5.93;82.85
63088;BME280;49173;43.164;27.786;2023-03-03T01:26:51;100820.03;;;5.91;82.76
63088;BME280;49173;43.164;27.786;2023-03-03T01:29:17;100828.88;;;5.92;82.97
63088;BME280;49173;43.164;27.786;2023-03-03T01:31:44;100820.03;;;5.90;82.76
63088;BME280;49173;43.164;27.786;2023-03-03T01:34:10;100821.88;;;5.88;82.89
63088;BME280;49173;43.164;27.786;2023-03-03T01:36:36;100813.84;;;5.89;82.91
63088;BME280;49173;43.164;27.786;2023-03-03T01:39:02;100814.72;;;5.90;82.79
63088;BME280;49173;43.164;27.786;2023-03-03T01:41:29;100812.97;;;5.89;82.69
63088;BME280;49173;43.164;27.786;2023-03-03T01:43:59;100807.56;;;5.92;82.57
63088;BME280;49173;43.164;27.786;2023-03-03T01:46:37;100812.91;;;5.92;82.81
63088;BME280;49173;43.164;27.786;2023-03-03T01:51:54;100810.22;;;5.93;82.21
63088;BME280;49173;43.164;27.786;2023-03-03T01:54:49;100810.25;;;5.92;82.75
63088;BME280;49173;43.164;27.786;2023-03-03T01:57:24;100808.38;;;5.95;82.79
63088;BME280;49173;43.164;27.786;2023-03-03T01:59:52;100809.31;;;5.94;82.70
63088;BME280;49173;43.164;27.786;2023-03-03T02:02:20;100821.75;;;5.94;82.97
63088;BME280;49173;43.164;27.786;2023-03-03T02:04:48;100817.34;;;5.93;83.45
63088;BME280;49173;43.164;27.786;2023-03-03T02:07:15;100806.69;;;5.93;83.32
63088;BME280;49173;43.164;27.786;2023-03-03T02:10:08;100812.00;;;5.93;83.54
63088;BME280;49173;43.164;27.786;2023-03-03T02:12:47;100805.84;;;5.91;83.60
63088;BME280;49173;43.164;27.786;2023-03-03T02:15:20;100804.03;;;5.91;83.77
63088;BME280;49173;43.164;27.786;2023-03-03T02:17:48;100804.88;;;5.93;83.86
63088;BME280;49173;43.164;27.786;2023-03-03T02:25:39;100800.53;;;5.89;84.30
63088;BME280;49173;43.164;27.786;2023-03-03T02:28:08;100805.91;;;5.88;84.43
63088;BME280;49173;43.164;27.786;2023-03-03T02:30:39;100809.50;;;5.87;84.35
63088;BME280;49173;43.164;27.786;2023-03-03T02:33:04;100812.28;;;5.82;83.96
63088;BME280;49173;43.164;27.786;2023-03-03T02:35:39;100807.81;;;5.83;84.12
63088;BME280;49173;43.164;27.786;2023-03-03T02:43:19;100803.50;;;5.78;83.81
63088;BME280;49173;43.164;27.786;2023-03-03T02:45:48;100810.56;;;5.79;83.53
63088;BME280;49173;43.164;27.786;2023-03-03T02:48:14;100792.84;;;5.78;83.67
63088;BME280;49173;43.164;27.786;2023-03-03T02:50:41;100797.31;;;5.78;83.56
63088;BME280;49173;43.164;27.786;2023-03-03T02:53:07;100799.97;;;5.78;83.42
63088;BME280;49173;43.164;27.786;2023-03-03T02:55:34;100802.66;;;5.76;83.62
63088;BME280;49173;43.164;27.786;2023-03-03T02:58:00;100802.66;;;5.76;83.65
63088;BME280;49173;43.164;27.786;2023-03-03T03:00:26;100787.66;;;5.74;83.68
63088;BME280;49173;43.164;27.786;2023-03-03T03:02:51;100787.66;;;5.74;83.63
63088;BME280;49173;43.164;27.786;2023-03-03T03:05:17;100792.16;;;5.70;83.41
63088;BME280;49173;43.164;27.786;2023-03-03T03:07:43;100785.22;;;5.66;83.16
63088;BME280;49173;43.164;27.786;2023-03-03T03:10:10;100784.34;;;5.66;83.75
63088;BME280;49173;43.164;27.786;2023-03-03T03:12:36;100790.59;;;5.63;83.86
63088;BME280;49173;43.164;27.786;2023-03-03T03:15:02;100792.38;;;5.64;83.43
63088;BME280;49173;43.164;27.786;2023-03-03T03:17:28;100793.19;;;5.66;83.43
63088;BME280;49173;43.164;27.786;2023-03-03T03:19:55;100783.38;;;5.68;83.52
63088;BME280;49173;43.164;27.786;2023-03-03T03:22:21;100796.69;;;5.68;83.15
63088;BME280;49173;43.164;27.786;2023-03-03T03:24:47;100785.97;;;5.70;83.41
63088;BME280;49173;43.164;27.786;2023-03-03T03:27:13;100790.38;;;5.72;83.17
63088;BME280;49173;43.164;27.786;2023-03-03T03:29:39;100786.84;;;5.70;83.38
63088;BME280;49173;43.164;27.786;2023-03-03T03:32:05;100791.34;;;5.68;83.51
63088;BME280;49173;43.164;27.786;2023-03-03T03:34:31;100789.56;;;5.69;83.85
63088;BME280;49173;43.164;27.786;2023-03-03T03:36:57;100788.75;;;5.67;84.02
63088;BME280;49173;43.164;27.786;2023-03-03T03:39:22;100788.78;;;5.65;83.98
63088;BME280;49173;43.164;27.786;2023-03-03T03:41:48;100782.59;;;5.63;83.81
63088;BME280;49173;43.164;27.786;2023-03-03T03:44:14;100784.41;;;5.63;84.15
63088;BME280;49173;43.164;27.786;2023-03-03T03:46:40;100781.09;;;5.55;84.66
63088;BME280;49173;43.164;27.786;2023-03-03T03:49:06;100773.03;;;5.58;84.68
63088;BME280;49173;43.164;27.786;2023-03-03T03:51:32;100776.56;;;5.58;84.67
63088;BME280;49173;43.164;27.786;2023-03-03T03:54:00;100772.16;;;5.57;84.73
63088;BME280;49173;43.164;27.786;2023-03-03T03:56:25;100761.50;;;5.57;84.91
63088;BME280;49173;43.164;27.786;2023-03-03T03:58:51;100766.78;;;5.59;84.90
63088;BME280;49173;43.164;27.786;2023-03-03T04:01:17;100765.00;;;5.59;84.75
63088;BME280;49173;43.164;27.786;2023-03-03T04:03:43;100770.38;;;5.58;84.77
63088;BME280;49173;43.164;27.786;2023-03-03T04:06:09;100757.06;;;5.56;85.01
63088;BME280;49173;43.164;27.786;2023-03-03T04:08:35;100756.19;;;5.57;85.00
63088;BME280;49173;43.164;27.786;2023-03-03T04:11:01;100760.66;;;5.55;85.16
63088;BME280;49173;43.164;27.786;2023-03-03T04:13:27;100755.34;;;5.55;85.06
63088;BME280;49173;43.164;27.786;2023-03-03T04:15:56;100763.19;;;5.60;85.18
63088;BME280;49173;43.164;27.786;2023-03-03T04:18:22;100756.03;;;5.62;85.08
63088;BME280;49173;43.164;27.786;2023-03-03T04:20:49;100745.38;;;5.62;85.08
63088;BME280;49173;43.164;27.786;2023-03-03T04:23:17;100750.06;;;5.54;85.39
63088;BME280;49173;43.164;27.786;2023-03-03T04:25:45;100753.59;;;5.54;85.40
63088;BME280;49173;43.164;27.786;2023-03-03T04:28:13;100743.00;;;5.53;85.46
63088;BME280;49173;43.164;27.786;2023-03-03T04:30:39;100744.78;;;5.52;85.19
63088;BME280;49173;43.164;27.786;2023-03-03T04:33:05;100743.97;;;5.50;85.53
63088;BME280;49173;43.164;27.786;2023-03-03T04:35:31;100744.03;;;5.47;85.19
63088;BME280;49173;43.164;27.786;2023-03-03T04:37:59;100746.78;;;5.44;85.17
63088;BME280;49173;43.164;27.786;2023-03-03T04:40:25;100750.31;;;5.44;85.19
63088;BME280;49173;43.164;27.786;2023-03-03T04:42:51;100752.00;;;5.47;84.89
63088;BME280;49173;43.164;27.786;2023-03-03T04:45:17;100743.09;;;5.48;84.89
63088;BME280;49173;43.164;27.786;2023-03-03T04:47:43;100743.09;;;5.48;84.63
63088;BME280;49173;43.164;27.786;2023-03-03T04:50:10;100752.88;;;5.47;84.73
63088;BME280;49173;43.164;27.786;2023-03-03T04:52:36;100750.19;;;5.49;84.63
63088;BME280;49173;43.164;27.786;2023-03-03T04:55:02;100758.22;;;5.47;84.74
63088;BME280;49173;43.164;27.786;2023-03-03T04:57:29;100747.56;;;5.47;85.03
63088;BME280;49173;43.164;27.786;2023-03-03T04:59:55;100748.44;;;5.48;85.01
63088;BME280;49173;43.164;27.786;2023-03-03T05:02:21;100747.44;;;5.52;85.40
63088;BME280;49173;43.164;27.786;2023-03-03T05:04:47;100745.66;;;5.53;85.31
63088;BME280;49173;43.164;27.786;2023-03-03T05:07:13;100751.78;;;5.55;85.45
63088;BME280;49173;43.164;27.786;2023-03-03T05:09:39;100749.19;;;5.53;85.50
63088;BME280;49173;43.164;27.786;2023-03-03T05:12:06;100759.88;;;5.51;85.19
63088;BME280;49173;43.164;27.786;2023-03-03T05:14:32;100752.72;;;5.54;84.72
63088;BME280;49173;43.164;27.786;2023-03-03T05:16:58;100768.69;;;5.54;84.99
63088;BME280;49173;43.164;27.786;2023-03-03T05:19:24;100769.63;;;5.53;84.87
63088;BME280;49173;43.164;27.786;2023-03-03T05:21:51;100775.69;;;5.58;85.02
63088;BME280;49173;43.164;27.786;2023-03-03T05:24:17;100770.44;;;5.55;85.08
63088;BME280;49173;43.164;27.786;2023-03-03T05:26:43;100770.38;;;5.58;85.59
63088;BME280;49173;43.164;27.786;2023-03-03T05:29:09;100772.97;;;5.59;85.50
63088;BME280;49173;43.164;27.786;2023-03-03T05:31:35;100781.88;;;5.58;85.52
63088;BME280;49173;43.164;27.786;2023-03-03T05:34:02;100771.25;;;5.58;85.53
63088;BME280;49173;43.164;27.786;2023-03-03T05:36:28;100779.19;;;5.60;85.94
63088;BME280;49173;43.164;27.786;2023-03-03T05:38:54;100779.19;;;5.60;85.63
63088;BME280;49173;43.164;27.786;2023-03-03T05:41:20;100776.47;;;5.61;86.13
63088;BME280;49173;43.164;27.786;2023-03-03T05:43:46;100780.81;;;5.65;86.05
63088;BME280;49173;43.164;27.786;2023-03-03T05:46:12;100786.13;;;5.65;86.25
63088;BME280;49173;43.164;27.786;2023-03-03T05:48:38;100782.59;;;5.63;86.40
63088;BME280;49173;43.164;27.786;2023-03-03T05:51:04;100786.25;;;5.61;86.63
63088;BME280;49173;43.164;27.786;2023-03-03T05:53:41;100783.59;;;5.61;86.60
63088;BME280;49173;43.164;27.786;2023-03-03T05:56:06;100772.00;;;5.62;86.34
63088;BME280;49173;43.164;27.786;2023-03-03T05:58:33;100780.81;;;5.64;86.37
63088;BME280;49173;43.164;27.786;2023-03-03T06:00:59;100770.16;;;5.65;86.42
63088;BME280;49173;43.164;27.786;2023-03-03T06:03:25;100771.88;;;5.66;86.70
63088;BME280;49173;43.164;27.786;2023-03-03T06:05:51;100772.81;;;5.65;85.97
63088;BME280;49173;43.164;27.786;2023-03-03T06:08:17;100768.34;;;5.66;86.08
63088;BME280;49173;43.164;27.786;2023-03-03T06:10:43;100771.03;;;5.66;85.94
63088;BME280;49173;43.164;27.786;2023-03-03T06:13:09;100770.16;;;5.65;86.23
63088;BME280;49173;43.164;27.786;2023-03-03T06:15:36;100765.69;;;5.66;85.79
63088;BME280;49173;43.164;27.786;2023-03-03T06:18:02;100762.97;;;5.67;86.11
63088;BME280;49173;43.164;27.786;2023-03-03T06:20:28;100758.53;;;5.68;86.28
63088;BME280;49173;43.164;27.786;2023-03-03T06:22:55;100768.25;;;5.69;85.92
63088;BME280;49173;43.164;27.786;2023-03-03T06:25:23;100766.41;;;5.72;85.26
63088;BME280;49173;43.164;27.786;2023-03-03T06:27:50;100768.09;;;5.75;84.95
63088;BME280;49173;43.164;27.786;2023-03-03T06:30:16;100771.56;;;5.77;84.62
63088;BME280;49173;43.164;27.786;2023-03-03T06:32:43;100765.31;;;5.79;84.68
63088;BME280;49173;43.164;27.786;2023-03-03T06:35:10;100768.78;;;5.82;84.62
63088;BME280;49173;43.164;27.786;2023-03-03T06:37:37;100773.13;;;5.86;84.62
63088;BME280;49173;43.164;27.786;2023-03-03T06:40:04;100782.81;;;5.88;85.02
63088;BME280;49173;43.164;27.786;2023-03-03T06:42:30;100774.75;;;5.91;85.29
63088;BME280;49173;43.164;27.786;2023-03-03T06:44:56;100778.19;;;5.95;85.18
63088;BME280;49173;43.164;27.786;2023-03-03T06:47:22;100778.16;;;5.96;85.07
63088;BME280;49173;43.164;27.786;2023-03-03T06:49:48;100773.69;;;5.97;84.83
63088;BME280;49173;43.164;27.786;2023-03-03T06:52:21;100778.06;;;5.99;84.36
63088;BME280;49173;43.164;27.786;2023-03-03T06:54:47;100775.31;;;6.02;84.82
63088;BME280;49173;43.164;27.786;2023-03-03T06:57:24;100777.84;;;6.07;84.87
63088;BME280;49173;43.164;27.786;2023-03-03T06:59:53;100781.38;;;6.08;84.99
63088;BME280;49173;43.164;27.786;2023-03-03T07:02:20;100779.47;;;6.11;84.96
63088;BME280;49173;43.164;27.786;2023-03-03T07:04:47;100780.28;;;6.15;85.09
63088;BME280;49173;43.164;27.786;2023-03-03T07:07:24;100763.31;;;6.17;84.88
63088;BME280;49173;43.164;27.786;2023-03-03T07:09:55;100763.25;;;6.19;84.95
63088;BME280;49173;43.164;27.786;2023-03-03T07:12:23;100766.78;;;6.19;84.66
63088;BME280;49173;43.164;27.786;2023-03-03T07:17:32;100771.94;;;6.25;84.11
63088;BME280;49173;43.164;27.786;2023-03-03T07:20:00;100757.69;;;6.26;84.13
63088;BME280;49173;43.164;27.786;2023-03-03T07:22:27;100762.88;;;6.31;83.78
63088;BME280;49173;43.164;27.786;2023-03-03T07:24:59;100755.72;;;6.33;83.75
63088;BME280;49173;43.164;27.786;2023-03-03T07:27:30;100754.84;;;6.32;83.69
63088;BME280;49173;43.164;27.786;2023-03-03T07:32:42;100757.69;;;6.26;83.06
63088;BME280;49173;43.164;27.786;2023-03-03T07:35:37;100749.63;;;6.29;83.15
63088;BME280;49173;43.164;27.786;2023-03-03T07:40:58;100754.75;;;6.36;82.78
63088;BME280;49173;43.164;27.786;2023-03-03T07:43:38;100750.38;;;6.33;81.95
63088;BME280;49173;43.164;27.786;2023-03-03T07:48:43;100748.50;;;6.37;81.35
63088;BME280;49173;43.164;27.786;2023-03-03T07:51:22;100736.91;;;6.38;81.43
63088;BME280;49173;43.164;27.786;2023-03-03T07:54:37;100741.31;;;6.39;81.37
63088;BME280;49173;43.164;27.786;2023-03-03T07:56:38;100747.22;;;6.48;81.28
63088;BME280;49173;43.164;27.786;2023-03-03T07:59:24;100738.47;;;6.45;79.69
63088;BME280;49173;43.164;27.786;2023-03-03T08:01:52;100745.66;;;6.43;79.69
63088;BME280;49173;43.164;27.786;2023-03-03T08:04:39;100736.53;;;6.50;79.83
63088;BME280;49173;43.164;27.786;2023-03-03T08:07:18;100734.78;;;6.49;79.55
63088;BME280;49173;43.164;27.786;2023-03-03T08:10:00;100737.16;;;6.58;79.37
63088;BME280;49173;43.164;27.786;2023-03-03T08:12:41;100742.13;;;6.69;79.21
63088;BME280;49173;43.164;27.786;2023-03-03T08:17:38;100729.38;;;6.78;77.75
63088;BME280;49173;43.164;27.786;2023-03-03T08:22:59;100725.97;;;7.00;77.42
63088;BME280;49173;43.164;27.786;2023-03-03T08:25:25;100731.78;;;7.11;77.24
63088;BME280;49173;43.164;27.786;2023-03-03T08:27:51;100727.31;;;7.11;76.89
63088;BME280;49173;43.164;27.786;2023-03-03T08:30:17;100729.56;;;7.24;77.23
63088;BME280;49173;43.164;27.786;2023-03-03T08:32:43;100726.41;;;7.37;77.47
63088;BME280;49173;43.164;27.786;2023-03-03T08:35:09;100723.22;;;7.51;76.67
63088;BME280;49173;43.164;27.786;2023-03-03T08:37:35;100724.66;;;7.61;77.15
63088;BME280;49173;43.164;27.786;2023-03-03T08:40:05;100728.66;;;7.73;77.26
63088;BME280;49173;43.164;27.786;2023-03-03T08:42:32;100725.91;;;7.75;77.06
63088;BME280;49173;43.164;27.786;2023-03-03T08:45:01;100733.69;;;7.81;76.00
63088;BME280;49173;43.164;27.786;2023-03-03T08:47:27;100725.47;;;7.87;74.09
63088;BME280;49173;43.164;27.786;2023-03-03T08:50:20;100719.75;;;7.96;74.22
63088;BME280;49173;43.164;27.786;2023-03-03T08:52:49;100728.16;;;8.09;74.51
63088;BME280;49173;43.164;27.786;2023-03-03T08:55:16;100719.06;;;8.14;73.11
63088;BME280;49173;43.164;27.786;2023-03-03T08:57:46;100726.75;;;8.22;72.30
63088;BME280;49173;43.164;27.786;2023-03-03T09:00:16;100716.84;;;8.25;71.50
63088;BME280;49173;43.164;27.786;2023-03-03T09:02:44;100716.06;;;8.22;71.38
63088;BME280;49173;43.164;27.786;2023-03-03T09:05:11;100718.50;;;8.28;71.25
63088;BME280;49173;43.164;27.786;2023-03-03T09:07:39;100718.16;;;8.37;71.62
63088;BME280;49173;43.164;27.786;2023-03-03T09:10:06;100709.03;;;8.43;70.97
63088;BME280;49173;43.164;27.786;2023-03-03T09:12:40;100713.38;;;8.45;70.30
63088;BME280;49173;43.164;27.786;2023-03-03T09:15:20;100708.94;;;8.44;69.51
63088;BME280;49173;43.164;27.786;2023-03-03T09:17:49;100697.06;;;8.51;70.15
63088;BME280;49173;43.164;27.786;2023-03-03T09:20:37;100696.72;;;8.61;69.99
63088;BME280;49173;43.164;27.786;2023-03-03T09:25:53;100696.13;;;8.74;68.55
63088;BME280;49173;43.164;27.786;2023-03-03T09:28:31;100685.38;;;8.76;68.26
63088;BME280;49173;43.164;27.786;2023-03-03T09:31:00;100696.19;;;8.73;68.50
63088;BME280;49173;43.164;27.786;2023-03-03T09:33:43;100692.84;;;8.68;67.65
63088;BME280;49173;43.164;27.786;2023-03-03T09:36:18;100692.16;;;8.63;67.96
63088;BME280;49173;43.164;27.786;2023-03-03T09:38:46;100700.13;;;8.64;67.13
63088;BME280;49173;43.164;27.786;2023-03-03T09:44:32;100688.63;;;8.62;68.40
63088;BME280;49173;43.164;27.786;2023-03-03T09:47:05;100669.09;;;8.60;67.57
63088;BME280;49173;43.164;27.786;2023-03-03T09:53:17;100666.44;;;8.59;68.02
63088;BME280;49173;43.164;27.786;2023-03-03T09:58:19;100661.34;;;8.52;67.89
63088;BME280;49173;43.164;27.786;2023-03-03T10:07:14;100646.31;;;8.50;68.06
63088;BME280;49173;43.164;27.786;2023-03-03T10:22:17;100631.16;;;8.71;66.90
63088;BME280;49173;43.164;27.786;2023-03-03T10:30:52;100618.66;;;8.71;66.28
63088;BME280;49173;43.164;27.786;2023-03-03T10:51:08;100593.16;;;9.03;65.66
63088;BME280;49173;43.164;27.786;2023-03-03T11:00:14;100573.78;;;9.17;65.06
63088;BME280;49173;43.164;27.786;2023-03-03T11:22:30;100522.97;;;9.16;66.06
63088;BME280;49173;43.164;27.786;2023-03-03T11:25:23;100520.44;;;9.13;64.39
63088;BME280;49173;43.164;27.786;2023-03-03T11:36:38;100514.81;;;9.19;65.84
63088;BME280;49173;43.164;27.786;2023-03-03T11:39:16;100516.59;;;9.18;66.09
63088;BME280;49173;43.164;27.786;2023-03-03T11:44:56;100514.00;;;9.35;66.59
63088;BME280;49173;43.164;27.786;2023-03-03T11:47:44;100512.34;;;9.33;66.21
63088;BME280;49173;43.164;27.786;2023-03-03T11:50:25;100518.13;;;9.24;66.18
63088;BME280;49173;43.164;27.786;2023-03-03T11:55:54;100508.34;;;9.23;65.80
63088;BME280;49173;43.164;27.786;2023-03-03T11:58:41;100501.69;;;9.13;65.81
63088;BME280;49173;43.164;27.786;2023-03-03T12:06:56;100505.03;;;9.18;65.44
63088;BME280;49173;43.164;27.786;2023-03-03T12:12:32;100499.50;;;9.02;65.32
63088;BME280;49173;43.164;27.786;2023-03-03T12:15:20;100500.63;;;8.77;66.86
63088;BME280;49173;43.164;27.786;2023-03-03T12:32:14;100494.06;;;8.85;66.92
63088;BME280;49173;43.164;27.786;2023-03-03T12:36:06;100491.47;;;8.83;67.10
63088;BME280;49173;43.164;27.786;2023-03-03T12:40:40;100488.78;;;9.02;67.00
63088;BME280;49173;43.164;27.786;2023-03-03T12:43:26;100486.84;;;9.05;66.91
63088;BME280;49173;43.164;27.786;2023-03-03T12:48:46;100487.94;;;9.20;66.00
63088;BME280;49173;43.164;27.786;2023-03-03T12:54:53;100504.44;;;9.49;65.76
63088;BME280;49173;43.164;27.786;2023-03-03T12:57:57;100501.38;;;9.56;66.02
63088;BME280;49173;43.164;27.786;2023-03-03T13:03:28;100500.63;;;9.72;65.04
63088;BME280;49173;43.164;27.786;2023-03-03T13:06:43;100488.53;;;9.82;64.55
63088;BME280;49173;43.164;27.786;2023-03-03T13:15:26;100483.25;;;9.98;65.45
63088;BME280;49173;43.164;27.786;2023-03-03T13:21:00;100488.81;;;9.93;65.50
63088;BME280;49173;43.164;27.786;2023-03-03T13:24:12;100481.59;;;9.95;64.70
63088;BME280;49173;43.164;27.786;2023-03-03T13:26:53;100483.03;;;10.02;65.39
63088;BME280;49173;43.164;27.786;2023-03-03T13:29:29;100485.66;;;9.85;66.30
63088;BME280;49173;43.164;27.786;2023-03-03T13:32:10;100487.56;;;9.83;67.45
63088;BME280;49173;43.164;27.786;2023-03-03T13:35:13;100478.47;;;9.68;66.65
63088;BME280;49173;43.164;27.786;2023-03-03T13:37:51;100474.16;;;9.66;67.26
63088;BME280;49173;43.164;27.786;2023-03-03T13:40:26;100479.66;;;9.62;67.10
63088;BME280;49173;43.164;27.786;2023-03-03T13:43:02;100476.78;;;9.48;66.84
63088;BME280;49173;43.164;27.786;2023-03-03T13:51:31;100476.66;;;9.32;67.47
63088;BME280;49173;43.164;27.786;2023-03-03T13:57:03;100471.50;;;9.28;67.25
63088;BME280;49173;43.164;27.786;2023-03-03T14:07:58;100470.31;;;9.16;68.74
63088;BME280;49173;43.164;27.786;2023-03-03T14:10:36;100466.72;;;9.16;67.91
63088;BME280;49173;43.164;27.786;2023-03-03T14:13:16;100464.50;;;9.06;68.35
63088;BME280;49173;43.164;27.786;2023-03-03T14:16:04;100471.22;;;8.96;68.89
63088;BME280;49173;43.164;27.786;2023-03-03T14:18:49;100465.06;;;8.94;68.88
63088;BME280;49173;43.164;27.786;2023-03-03T14:21:39;100467.38;;;8.83;69.50
63088;BME280;49173;43.164;27.786;2023-03-03T14:24:15;100471.94;;;8.81;69.72
63088;BME280;49173;43.164;27.786;2023-03-03T14:26:54;100471.13;;;8.79;69.65
63088;BME280;49173;43.164;27.786;2023-03-03T14:29:29;100467.00;;;8.72;69.59
63088;BME280;49173;43.164;27.786;2023-03-03T14:32:19;100473.50;;;8.66;70.23
63088;BME280;49173;43.164;27.786;2023-03-03T14:34:58;100479.00;;;8.63;70.63
63088;BME280;49173;43.164;27.786;2023-03-03T14:37:45;100469.75;;;8.70;70.69
63088;BME280;49173;43.164;27.786;2023-03-03T14:40:30;100487.25;;;8.77;70.69
63088;BME280;49173;43.164;27.786;2023-03-03T14:43:01;100480.09;;;8.78;70.70
63088;BME280;49173;43.164;27.786;2023-03-03T14:45:38;100478.78;;;8.68;71.12
63088;BME280;49173;43.164;27.786;2023-03-03T14:48:25;100486.75;;;8.69;71.15
63088;BME280;49173;43.164;27.786;2023-03-03T14:50:55;100488.47;;;8.70;71.76
63088;BME280;49173;43.164;27.786;2023-03-03T14:53:43;100488.47;;;8.70;71.54
63088;BME280;49173;43.164;27.786;2023-03-03T14:56:32;100490.63;;;8.62;71.69
63088;BME280;49173;43.164;27.786;2023-03-03T14:59:18;100485.47;;;8.58;72.31
63088;BME280;49173;43.164;27.786;2023-03-03T15:01:46;100482.09;;;8.54;72.31
63088;BME280;49173;43.164;27.786;2023-03-03T15:04:26;100495.66;;;8.49;72.53
63088;BME280;49173;43.164;27.786;2023-03-03T15:06:59;100493.94;;;8.48;72.76
63088;BME280;49173;43.164;27.786;2023-03-03T15:09:49;100472.38;;;8.51;72.36
63088;BME280;49173;43.164;27.786;2023-03-03T15:12:33;100485.63;;;8.55;72.48
63088;BME280;49173;43.164;27.786;2023-03-03T15:15:25;100482.88;;;8.56;72.56
63088;BME280;49173;43.164;27.786;2023-03-03T15:18:08;100475.13;;;8.50;72.20
63088;BME280;49173;43.164;27.786;2023-03-03T15:20:46;100481.56;;;8.46;71.66
63088;BME280;49173;43.164;27.786;2023-03-03T15:31:28;100492.94;;;8.29;73.26
63088;BME280;49173;43.164;27.786;2023-03-03T15:42:40;100500.56;;;7.97;77.20
63088;BME280;49173;43.164;27.786;2023-03-03T15:45:33;100507.50;;;8.02;79.10
63088;BME280;49173;43.164;27.786;2023-03-03T15:59:24;100505.06;;;7.95;81.46
63088;BME280;49173;43.164;27.786;2023-03-03T16:02:22;100515.03;;;7.92;82.01
63088;BME280;49173;43.164;27.786;2023-03-03T16:05:06;100519.31;;;7.96;82.33
63088;BME280;49173;43.164;27.786;2023-03-03T16:08:12;100514.19;;;7.91;82.52
63088;BME280;49173;43.164;27.786;2023-03-03T16:16:46;100520.63;;;7.86;83.26
63088;BME280;49173;43.164;27.786;2023-03-03T16:27:45;100537.22;;;7.94;83.51
63088;BME280;49173;43.164;27.786;2023-03-03T16:33:49;100548.03;;;7.91;83.64
63088;BME280;49173;43.164;27.786;2023-03-03T16:36:07;100554.13;;;7.94;83.94
63088;BME280;49173;43.164;27.786;2023-03-03T16:38:41;100552.22;;;7.98;84.12
63088;BME280;49173;43.164;27.786;2023-03-03T16:41:27;100552.31;;;7.95;83.67
63088;BME280;49173;43.164;27.786;2023-03-03T16:46:48;100557.91;;;7.89;84.04
63088;BME280;49173;43.164;27.786;2023-03-03T16:49:24;100558.75;;;7.91;83.63
63088;BME280;49173;43.164;27.786;2023-03-03T16:52:11;100565.75;;;7.93;83.71
63088;BME280;49173;43.164;27.786;2023-03-03T16:55:12;100570.16;;;7.94;83.67
63088;BME280;49173;43.164;27.786;2023-03-03T16:58:15;100570.22;;;7.93;83.78
63088;BME280;49173;43.164;27.786;2023-03-03T17:00:55;100575.63;;;7.91;83.73
63088;BME280;49173;43.164;27.786;2023-03-03T17:06:53;100563.53;;;7.83;84.18
63088;BME280;49173;43.164;27.786;2023-03-03T17:12:24;100572.81;;;7.72;84.91
63088;BME280;49173;43.164;27.786;2023-03-03T17:23:26;100571.41;;;7.64;86.20
63088;BME280;49173;43.164;27.786;2023-03-03T17:32:05;100581.94;;;7.67;86.06
63088;BME280;49173;43.164;27.786;2023-03-03T17:34:53;100583.69;;;7.68;86.47
63088;BME280;49173;43.164;27.786;2023-03-03T17:37:51;100591.69;;;7.68;86.37
63088;BME280;49173;43.164;27.786;2023-03-03T17:43:14;100583.59;;;7.71;86.72
63088;BME280;49173;43.164;27.786;2023-03-03T17:45:46;100592.47;;;7.71;86.26